map of LSQ home
LSQ - Airport
Location
City:  Los 聲geles, B甐 B甐, Chile
Name:Mar燰 Dolores Airport
ICAO:SCGE
IATA:LSQ

Details
Type:Airport (Aerodrome, Airfield)
Use:Public/Civil
Latitude:3724'07"S (-37.401943)
Longitude:7225'32"W (-72.425555)
Elevation:374 ft (114 m)
Variation:5.45蚩 (WMM2015 magnetic declination)
-0.13 annual change
Runways:1
Longest:5577 × 98 ft (1700 × 30 m), paved

Time
Time Zone:UTC-4 (DST-3)
Local Time:

Weather
METAR:SCGE 161800Z 29012KT 9999 BKN030 BKN100 20/09 Q1014

Related Locations
Nearby:
Farthest:INC: 12345 mi / 19867 km
Yinchuan [Hedong], 64, CN

Find:

   beyond  
but within

Other Information
Maps:
NOTAMs:
Links:
Sources:

  
  • flag of Chile
  • flag of B甐 B甐
  

Sectional Chart

Flight Planning
at skyvector.com

Satellite Image

Google Maps Satellite view

 

Copyright © 2004-2018 Karl L. Swartz. All rights reserved.
The Great Circle Mapper name and logo are trademarks of the Great Circle Mapper.
All other trademarks mentioned herein belong to their respective owners.
Please see credits for attibutions and further copyright information.

  Follow gcmap on Facebook Follow gcmap on Twitter Follow gcmap on Google+ GCmap on LinkedIn

hCard Microformat

Geo Microformat